KNGU/NGU METAR and TAF weather

Enter ICAO airport designator
Station Type Date Time Source
KNGU METAR 2020/02/22 06:59 UTC NOAA

KNGU 220659Z 00000KT 10SM CLR M03/M08 A3044 RMK AO2 SLP307 T10281078


Station Type Date Time Source
KNGU Decoded METAR 2020/02/22 06:59 UTC NOAA

Norfolk, Naval Air Station, VA, United States (KNGU) 36-56-01N 076-17-45W 8M
Feb 22, 2020 - 01:59 AM EST / 2020.02.22 0659 UTC
Wind: Calm:0
Visibility: 10 mile(s):0
Sky conditions: clear
Temperature: 27.0 F (-2.8 C)
Dew Point: 18.0 F (-7.8 C)
Relative Humidity: 68%
Pressure (altimeter): 30.44 in. Hg (1030 hPa)
ob: KNGU 220659Z 00000KT 10SM CLR M03/M08 A3044 RMK AO2 SLP307 T10281078
cycle: 7

Station Type Date Time Source
KNGU TAF 2020/02/22 07:06 UTC NOAA

TAF KNGU 2207/2307 31006KT 9999 SKC QNH3037INS
FM221800 22006KT 9999 FEW300 QNH3029INS
FM222300 VRB05KT 9999 SKC QNH3031INS TM03/2209Z T12/2220Z FN00085

Example: see airport list